Halifax, Canada
Current Conditions -  °F | °C
As of 7:00 AM on Tuesday 21 Oct 2014 (Local Time) from CYHZ Reporting Station
Scattered Clouds Scattered Clouds  
Wind Chill: 35°   Ceiling: Unl
Heat Index: 39°   Visibility: 15mi
Dew Point: 36°   Wind: 6mph
Humidity: 87%   Direction: 230°SW
Pressure: 30.08"   Gusts: NA
Location:  44.65°N, 63.57°W
Report Text: CYHZ 211000Z 23005KT 15SM SCT160 04/02 A3008 RMK AC3 SLP191
Loading
Personal Weather Stations






























Interactive Weather Map
Tropical Storm Tracking
New forecast layout! Learn more

10-Day Weather Forecast

Advertisements
Track Severe Weather on mobile